PWSweather.com
Personal Weather Stations
Station Observations

SkegnessGB

Lat: 53.147585, Lon: 0.345774

Elevation: 18

Station Type: Fine Offset WH3080

http://www.skegnessweather.info/

High Low Average
Temperature 46.0°F7.8°C 38.1°F3.4°C 41.4°F5.2°C
Dew Point 45.5°F7.5°C 32.8°F0.4°C 39.0°F3.9°C
Winds 16.0 mph 25.7 kmh 0.2 mph 0.3 kmh 8.0 mph S12.9 kmh S
Wind Gusts 18.5 mph29.8 kmh 1.7 mph2.7 kmh 9.0 mph14.5 kmh
Humidity 100% 77% 91%
Pressure 29.90 in1012.5 mb 29.58 in1001.7 mb -
Precipitation 0.14 in3.6 mm - -
Hour Temp Dew Point Humidity Winds Wind Gusts Pressure Precip Precip Rate Daily Precip Total
12:00 AM 39.4°F4.1°C 32.8°F0.4°C 77% 4.7 mph E7.6 kmh E 6.6 mph10.6 kmh 29.90 in1012.5 mb 0.00 in0.0 mm 0.00 in0.0 mm 0.00 in0.0 mm
12:10 AM 39.4°F4.1°C 32.8°F0.4°C 77% 4.8 mph SE7.7 kmh SE 5.9 mph9.5 kmh 29.89 in1012.2 mb 0.00 in0.0 mm 0.00 in0.0 mm 0.00 in0.0 mm
12:20 AM 39.6°F4.2°C 33.3°F0.7°C 78% 7.7 mph SSE12.4 kmh SSE 10.1 mph16.3 kmh 29.89 in1012.2 mb 0.00 in0.0 mm 0.00 in0.0 mm 0.00 in0.0 mm
12:30 AM 39.6°F4.2°C 33.3°F0.7°C 78% 8.8 mph SE14.2 kmh SE 8.4 mph13.5 kmh 29.89 in1012.2 mb 0.00 in0.0 mm 0.00 in0.0 mm 0.00 in0.0 mm
12:40 AM 39.7°F4.3°C 33.4°F0.8°C 78% 8.6 mph SSE13.8 kmh SSE 8.4 mph13.5 kmh 29.88 in1011.9 mb 0.00 in0.0 mm 0.00 in0.0 mm 0.00 in0.0 mm
12:50 AM 39.7°F4.3°C 33.8°F1.0°C 79% 10.2 mph S16.4 kmh S 10.1 mph16.3 kmh 29.88 in1011.9 mb 0.00 in0.0 mm 0.00 in0.0 mm 0.00 in0.0 mm
01:00 AM 39.9°F4.4°C 33.9°F1.1°C 79% 8.3 mph S13.4 kmh S 8.4 mph13.5 kmh 29.87 in1011.5 mb 0.00 in0.0 mm 0.00 in0.0 mm 0.00 in0.0 mm
01:10 AM 39.9°F4.4°C 33.9°F1.1°C 79% 10.0 mph SSE16.1 kmh SSE 10.1 mph16.3 kmh 29.87 in1011.5 mb 0.00 in0.0 mm 0.00 in0.0 mm 0.00 in0.0 mm
01:20 AM 40.1°F4.5°C 34.1°F1.2°C 79% 11.3 mph S18.2 kmh S 10.8 mph17.4 kmh 29.86 in1011.2 mb 0.00 in0.0 mm 0.00 in0.0 mm 0.00 in0.0 mm
01:30 AM 40.3°F4.6°C 34.6°F1.4°C 80% 12.1 mph S19.5 kmh S 12.5 mph20.1 kmh 29.86 in1011.2 mb 0.00 in0.0 mm 0.00 in0.0 mm 0.00 in0.0 mm
01:40 AM 40.3°F4.6°C 34.3°F1.3°C 79% 10.7 mph SE17.2 kmh SE 11.8 mph19.0 kmh 29.86 in1011.2 mb 0.00 in0.0 mm 0.00 in0.0 mm 0.00 in0.0 mm
01:50 AM 40.3°F4.6°C 34.6°F1.4°C 80% 11.1 mph SSE17.9 kmh SSE 12.5 mph20.1 kmh 29.86 in1011.2 mb 0.00 in0.0 mm 0.00 in0.0 mm 0.00 in0.0 mm
02:00 AM 40.5°F4.7°C 34.5°F1.4°C 79% 10.9 mph SE17.5 kmh SE 11.8 mph19.0 kmh 29.85 in1010.8 mb 0.00 in0.0 mm 0.00 in0.0 mm 0.00 in0.0 mm
02:10 AM 40.5°F4.7°C 34.5°F1.4°C 79% 10.8 mph SSW17.4 kmh SSW 10.8 mph17.4 kmh 29.84 in1010.5 mb 0.00 in0.0 mm 0.00 in0.0 mm 0.00 in0.0 mm
02:20 AM 40.5°F4.7°C 34.5°F1.4°C 79% 9.5 mph S15.3 kmh S 10.8 mph17.4 kmh 29.83 in1010.2 mb 0.00 in0.0 mm 0.00 in0.0 mm 0.00 in0.0 mm
02:30 AM 40.3°F4.6°C 34.3°F1.3°C 79% 8.6 mph S13.8 kmh S 10.8 mph17.4 kmh 29.83 in1010.2 mb 0.00 in0.0 mm 0.00 in0.0 mm 0.00 in0.0 mm
02:40 AM 40.3°F4.6°C 34.3°F1.3°C 79% 9.6 mph SSE15.4 kmh SSE 9.1 mph14.6 kmh 29.82 in1009.8 mb 0.00 in0.0 mm 0.00 in0.0 mm 0.00 in0.0 mm
02:50 AM 40.1°F4.5°C 34.4°F1.3°C 80% 9.6 mph SE15.4 kmh SE 9.1 mph14.6 kmh 29.82 in1009.8 mb 0.00 in0.0 mm 0.00 in0.0 mm 0.00 in0.0 mm
03:00 AM 40.3°F4.6°C 34.3°F1.3°C 79% 9.6 mph SE15.4 kmh SE 9.1 mph14.6 kmh 29.81 in1009.5 mb 0.00 in0.0 mm 0.00 in0.0 mm 0.00 in0.0 mm
03:10 AM 40.3°F4.6°C 34.6°F1.4°C 80% 8.3 mph S13.4 kmh S 10.1 mph16.3 kmh 29.80 in1009.1 mb 0.00 in0.0 mm 0.00 in0.0 mm 0.00 in0.0 mm
03:20 AM 40.3°F4.6°C 34.6°F1.4°C 80% 8.8 mph SSW14.2 kmh SSW 10.1 mph16.3 kmh 29.80 in1009.1 mb 0.00 in0.0 mm 0.00 in0.0 mm 0.00 in0.0 mm
03:30 AM 40.3°F4.6°C 34.3°F1.3°C 79% 10.4 mph SE16.7 kmh SE 12.5 mph20.1 kmh 29.79 in1008.8 mb 0.00 in0.0 mm 0.00 in0.0 mm 0.00 in0.0 mm
03:40 AM 40.3°F4.6°C 34.0°F1.1°C 78% 10.1 mph S16.3 kmh S 12.5 mph20.1 kmh 29.79 in1008.8 mb 0.00 in0.0 mm 0.00 in0.0 mm 0.00 in0.0 mm
03:50 AM 40.3°F4.6°C 34.0°F1.1°C 78% 9.8 mph SSE15.8 kmh SSE 10.8 mph17.4 kmh 29.79 in1008.8 mb 0.00 in0.0 mm 0.00 in0.0 mm 0.00 in0.0 mm
04:00 AM 40.3°F4.6°C 33.6°F0.9°C 77% 9.7 mph SSE15.6 kmh SSE 10.1 mph16.3 kmh 29.78 in1008.5 mb 0.00 in0.0 mm 0.00 in0.0 mm 0.00 in0.0 mm
04:10 AM 40.3°F4.6°C 33.6°F0.9°C 77% 9.8 mph SE15.8 kmh SE 11.8 mph19.0 kmh 29.78 in1008.5 mb 0.00 in0.0 mm 0.00 in0.0 mm 0.00 in0.0 mm
04:20 AM 40.5°F4.7°C 33.8°F1.0°C 77% 10.5 mph SSE16.9 kmh SSE 12.5 mph20.1 kmh 29.78 in1008.5 mb 0.00 in0.0 mm 0.00 in0.0 mm 0.00 in0.0 mm
04:30 AM 40.5°F4.7°C 33.8°F1.0°C 77% 10.2 mph S16.4 kmh S 10.8 mph17.4 kmh 29.77 in1008.1 mb 0.00 in0.0 mm 0.00 in0.0 mm 0.00 in0.0 mm
04:40 AM 40.5°F4.7°C 33.8°F1.0°C 77% 12.7 mph S20.4 kmh S 13.3 mph21.4 kmh 29.76 in1007.8 mb 0.00 in0.0 mm 0.00 in0.0 mm 0.00 in0.0 mm
04:50 AM 40.5°F4.7°C 34.1°F1.2°C 78% 11.0 mph S17.7 kmh S 11.8 mph19.0 kmh 29.76 in1007.8 mb 0.00 in0.0 mm 0.00 in0.0 mm 0.00 in0.0 mm
05:00 AM 40.3°F4.6°C 34.3°F1.3°C 79% 10.6 mph S17.1 kmh S 10.8 mph17.4 kmh 29.76 in1007.8 mb 0.00 in0.0 mm 0.00 in0.0 mm 0.00 in0.0 mm
05:10 AM 39.9°F4.4°C 35.2°F1.8°C 83% 12.2 mph SSE19.6 kmh SSE 12.5 mph20.1 kmh 29.75 in1007.5 mb 0.00 in0.0 mm 0.00 in0.0 mm 0.00 in0.0 mm
05:20 AM 39.6°F4.2°C 35.1°F1.7°C 84% 12.6 mph SSE20.3 kmh SSE 14.3 mph23.0 kmh 29.75 in1007.5 mb 0.00 in0.0 mm 0.00 in0.0 mm 0.00 in0.0 mm
05:30 AM 39.2°F4.0°C 35.4°F1.9°C 86% 12.4 mph SSE20.0 kmh SSE 15.0 mph24.1 kmh 29.75 in1007.5 mb 0.01 in0.3 mm 0.06 in1.5 mm 0.01 in0.3 mm
05:40 AM 39.0°F3.9°C 35.8°F2.1°C 88% 12.8 mph S20.6 kmh S 14.3 mph23.0 kmh 29.75 in1007.5 mb 0.01 in0.3 mm 0.00 in0.0 mm 0.01 in0.3 mm
05:50 AM 39.0°F3.9°C 36.3°F2.4°C 90% 14.8 mph S23.8 kmh S 13.3 mph21.4 kmh 29.74 in1007.1 mb 0.01 in0.3 mm 0.00 in0.0 mm 0.01 in0.3 mm
06:00 AM 38.8°F3.8°C 36.4°F2.4°C 91% 13.9 mph S22.4 kmh S 14.3 mph23.0 kmh 29.74 in1007.1 mb 0.02 in0.5 mm 0.01 in0.3 mm 0.02 in0.5 mm
06:10 AM 38.7°F3.7°C 36.5°F2.5°C 92% 16.0 mph S25.7 kmh S 13.3 mph21.4 kmh 29.73 in1006.8 mb 0.02 in0.5 mm 0.00 in0.0 mm 0.02 in0.5 mm
06:20 AM 38.5°F3.6°C 36.4°F2.4°C 92% 11.0 mph S17.7 kmh S 11.8 mph19.0 kmh 29.73 in1006.8 mb 0.05 in1.3 mm 0.18 in4.6 mm 0.05 in1.3 mm
06:30 AM 38.3°F3.5°C 36.5°F2.5°C 93% 11.2 mph SSW18.0 kmh SSW 11.8 mph19.0 kmh 29.73 in1006.8 mb 0.04 in1.0 mm 0.00 in0.0 mm 0.05 in1.3 mm
06:40 AM 38.3°F3.5°C 36.5°F2.5°C 93% 11.6 mph SE18.7 kmh SE 13.3 mph21.4 kmh 29.72 in1006.4 mb 0.05 in1.3 mm 0.06 in1.5 mm 0.06 in1.5 mm
06:50 AM 38.1°F3.4°C 36.5°F2.5°C 94% 11.5 mph S18.5 kmh S 18.5 mph29.8 kmh 29.72 in1006.4 mb 0.06 in1.5 mm 0.06 in1.5 mm 0.07 in1.8 mm
07:00 AM 38.1°F3.4°C 36.5°F2.5°C 94% 12.7 mph SSE20.4 kmh SSE 11.8 mph19.0 kmh 29.72 in1006.4 mb 0.05 in1.3 mm 0.00 in0.0 mm 0.07 in1.8 mm
07:10 AM 38.1°F3.4°C 36.5°F2.5°C 94% 13.1 mph S21.1 kmh S 15.0 mph24.1 kmh 29.72 in1006.4 mb 0.06 in1.5 mm 0.06 in1.5 mm 0.08 in2.0 mm
07:20 AM 38.1°F3.4°C 36.8°F2.7°C 95% 13.7 mph SSE22.0 kmh SSE 16.0 mph25.7 kmh 29.71 in1006.1 mb 0.04 in1.0 mm 0.00 in0.0 mm 0.08 in2.0 mm
07:30 AM 38.1°F3.4°C 36.8°F2.7°C 95% 14.0 mph S22.5 kmh S 15.0 mph24.1 kmh 29.70 in1005.8 mb 0.04 in1.0 mm 0.00 in0.0 mm 0.08 in2.0 mm
07:40 AM 38.1°F3.4°C 37.1°F2.8°C 96% 13.0 mph S20.9 kmh S 15.0 mph24.1 kmh 29.70 in1005.8 mb 0.02 in0.5 mm 0.00 in0.0 mm 0.08 in2.0 mm
07:50 AM 38.3°F3.5°C 37.3°F2.9°C 96% 10.1 mph S16.3 kmh S 15.0 mph24.1 kmh 29.69 in1005.4 mb 0.01 in0.3 mm 0.00 in0.0 mm 0.08 in2.0 mm
08:00 AM 38.3°F3.5°C 37.3°F2.9°C 96% 10.1 mph S16.3 kmh S 10.8 mph17.4 kmh 29.69 in1005.4 mb 0.01 in0.3 mm 0.00 in0.0 mm 0.08 in2.0 mm
08:10 AM 38.3°F3.5°C 37.3°F2.9°C 96% 13.2 mph S21.2 kmh S 10.8 mph17.4 kmh 29.68 in1005.1 mb 0.00 in0.0 mm 0.00 in0.0 mm 0.08 in2.0 mm
08:20 AM 38.3°F3.5°C 37.3°F2.9°C 96% 9.6 mph S15.4 kmh S 11.8 mph19.0 kmh 29.68 in1005.1 mb 0.00 in0.0 mm 0.00 in0.0 mm 0.08 in2.0 mm
08:30 AM 38.5°F3.6°C 37.7°F3.2°C 97% 10.9 mph S17.5 kmh S 11.8 mph19.0 kmh 29.68 in1005.1 mb 0.01 in0.3 mm 0.06 in1.5 mm 0.09 in2.3 mm
08:40 AM 38.5°F3.6°C 37.7°F3.2°C 97% 8.5 mph ESE13.7 kmh ESE 9.1 mph14.6 kmh 29.68 in1005.1 mb 0.01 in0.3 mm 0.00 in0.0 mm 0.09 in2.3 mm
08:50 AM 38.7°F3.7°C 37.9°F3.3°C 97% 8.2 mph S13.2 kmh S 10.1 mph16.3 kmh 29.67 in1004.7 mb 0.01 in0.3 mm 0.00 in0.0 mm 0.09 in2.3 mm
09:00 AM 38.8°F3.8°C 38.1°F3.4°C 97% 9.0 mph SSE14.5 kmh SSE 12.5 mph20.1 kmh 29.67 in1004.7 mb 0.01 in0.3 mm 0.00 in0.0 mm 0.09 in2.3 mm
09:10 AM 38.8°F3.8°C 38.1°F3.4°C 97% 7.5 mph S12.1 kmh S 12.5 mph20.1 kmh 29.67 in1004.7 mb 0.01 in0.3 mm 0.00 in0.0 mm 0.09 in2.3 mm
09:20 AM 38.8°F3.8°C 38.3°F3.5°C 98% 10.8 mph ESE17.4 kmh ESE 15.0 mph24.1 kmh 29.66 in1004.4 mb 0.02 in0.5 mm 0.06 in1.5 mm 0.11 in2.8 mm
09:30 AM 39.0°F3.9°C 38.5°F3.6°C 98% 9.1 mph SW14.6 kmh SW 14.3 mph23.0 kmh 29.66 in1004.4 mb 0.01 in0.3 mm 0.00 in0.0 mm 0.11 in2.8 mm
09:40 AM 39.0°F3.9°C 38.5°F3.6°C 98% 11.4 mph SE18.3 kmh SE 12.5 mph20.1 kmh 29.65 in1004.1 mb 0.01 in0.3 mm 0.00 in0.0 mm 0.11 in2.8 mm
09:50 AM 39.2°F4.0°C 38.7°F3.7°C 98% 13.7 mph S22.0 kmh S 16.0 mph25.7 kmh 29.65 in1004.1 mb 0.01 in0.3 mm 0.00 in0.0 mm 0.11 in2.8 mm
10:00 AM 39.2°F4.0°C 38.7°F3.7°C 98% 15.0 mph SSE24.1 kmh SSE 18.5 mph29.8 kmh 29.65 in1004.1 mb 0.01 in0.3 mm 0.00 in0.0 mm 0.11 in2.8 mm
10:10 AM 39.4°F4.1°C 39.1°F3.9°C 99% 11.9 mph S19.2 kmh S 12.5 mph20.1 kmh 29.65 in1004.1 mb 0.01 in0.3 mm 0.00 in0.0 mm 0.11 in2.8 mm
10:20 AM 39.6°F4.2°C 39.3°F4.1°C 99% 13.9 mph SSE22.4 kmh SSE 14.3 mph23.0 kmh 29.64 in1003.7 mb 0.00 in0.0 mm 0.00 in0.0 mm 0.11 in2.8 mm
10:30 AM 39.7°F4.3°C 39.5°F4.2°C 99% 12.3 mph SSE19.8 kmh SSE 15.0 mph24.1 kmh 29.64 in1003.7 mb 0.00 in0.0 mm 0.00 in0.0 mm 0.11 in2.8 mm
10:40 AM 39.9°F4.4°C 39.7°F4.3°C 99% 11.1 mph SE17.9 kmh SE 15.0 mph24.1 kmh 29.63 in1003.4 mb 0.01 in0.3 mm 0.06 in1.5 mm 0.12 in3.0 mm
10:50 AM 40.3°F4.6°C 40.3°F4.6°C 100% 11.2 mph SSE18.0 kmh SSE 11.8 mph19.0 kmh 29.63 in1003.4 mb 0.01 in0.3 mm 0.00 in0.0 mm 0.12 in3.0 mm
11:00 AM 40.3°F4.6°C 40.3°F4.6°C 100% 13.5 mph SSE21.7 kmh SSE 16.0 mph25.7 kmh 29.62 in1003.0 mb 0.01 in0.3 mm 0.00 in0.0 mm 0.12 in3.0 mm
11:10 AM 40.1°F4.5°C 40.1°F4.5°C 100% 13.8 mph S22.2 kmh S 15.0 mph24.1 kmh 29.62 in1003.0 mb 0.02 in0.5 mm 0.06 in1.5 mm 0.13 in3.3 mm
11:20 AM 40.3°F4.6°C 40.3°F4.6°C 100% 15.6 mph S25.1 kmh S 17.5 mph28.2 kmh 29.62 in1003.0 mb 0.02 in0.5 mm 0.00 in0.0 mm 0.13 in3.3 mm
11:30 AM 40.3°F4.6°C 40.3°F4.6°C 100% 15.3 mph S24.6 kmh S 14.3 mph23.0 kmh 29.62 in1003.0 mb 0.02 in0.5 mm 0.00 in0.0 mm 0.13 in3.3 mm
11:40 AM 40.5°F4.7°C 40.5°F4.7°C 100% 13.6 mph S21.9 kmh S 16.0 mph25.7 kmh 29.61 in1002.7 mb 0.01 in0.3 mm 0.00 in0.0 mm 0.13 in3.3 mm
11:50 AM 40.8°F4.9°C 40.8°F4.9°C 100% 13.5 mph S21.7 kmh S 16.7 mph26.9 kmh 29.61 in1002.7 mb 0.01 in0.3 mm 0.00 in0.0 mm 0.13 in3.3 mm
12:00 PM 40.6°F4.8°C 40.6°F4.8°C 100% 14.9 mph S24.0 kmh S 14.3 mph23.0 kmh 29.61 in1002.7 mb 0.01 in0.3 mm 0.00 in0.0 mm 0.13 in3.3 mm
12:10 PM 40.8°F4.9°C 40.8°F4.9°C 100% 14.6 mph SSW23.5 kmh SSW 13.3 mph21.4 kmh 29.60 in1002.4 mb 0.00 in0.0 mm 0.00 in0.0 mm 0.13 in3.3 mm
12:20 PM 41.0°F5.0°C 41.0°F5.0°C 100% 14.3 mph S23.0 kmh S 15.0 mph24.1 kmh 29.60 in1002.4 mb 0.00 in0.0 mm 0.00 in0.0 mm 0.13 in3.3 mm
12:30 PM 41.2°F5.1°C 41.2°F5.1°C 100% 12.6 mph S20.3 kmh S 13.3 mph21.4 kmh 29.60 in1002.4 mb 0.00 in0.0 mm 0.00 in0.0 mm 0.13 in3.3 mm
12:40 PM 41.2°F5.1°C 41.2°F5.1°C 100% 12.3 mph S19.8 kmh S 11.8 mph19.0 kmh 29.61 in1002.7 mb 0.00 in0.0 mm 0.00 in0.0 mm 0.13 in3.3 mm
12:50 PM 41.4°F5.2°C 41.4°F5.2°C 100% 13.3 mph S21.4 kmh S 16.7 mph26.9 kmh 29.60 in1002.4 mb 0.00 in0.0 mm 0.00 in0.0 mm 0.13 in3.3 mm
01:00 PM 41.7°F5.4°C 41.7°F5.4°C 100% 11.4 mph SSE18.3 kmh SSE 13.3 mph21.4 kmh 29.60 in1002.4 mb 0.00 in0.0 mm 0.00 in0.0 mm 0.13 in3.3 mm
01:10 PM 41.7°F5.4°C 41.7°F5.4°C 100% 11.9 mph SSE19.2 kmh SSE 12.5 mph20.1 kmh 29.59 in1002.0 mb 0.00 in0.0 mm 0.00 in0.0 mm 0.13 in3.3 mm
01:20 PM 41.9°F5.5°C 41.9°F5.5°C 100% 12.0 mph S19.3 kmh S 13.3 mph21.4 kmh 29.59 in1002.0 mb 0.00 in0.0 mm 0.00 in0.0 mm 0.13 in3.3 mm
01:30 PM 42.1°F5.6°C 42.1°F5.6°C 100% 10.4 mph S16.7 kmh S 11.8 mph19.0 kmh 29.60 in1002.4 mb 0.00 in0.0 mm 0.00 in0.0 mm 0.13 in3.3 mm
01:40 PM 42.3°F5.7°C 42.3°F5.7°C 100% 10.7 mph S17.2 kmh S 11.8 mph19.0 kmh 29.60 in1002.4 mb 0.00 in0.0 mm 0.00 in0.0 mm 0.13 in3.3 mm
01:50 PM 42.4°F5.8°C 42.4°F5.8°C 100% 10.0 mph S16.1 kmh S 10.8 mph17.4 kmh 29.59 in1002.0 mb 0.00 in0.0 mm 0.00 in0.0 mm 0.13 in3.3 mm
02:00 PM 42.8°F6.0°C 41.7°F5.4°C 96% 9.2 mph SSE14.8 kmh SSE 10.8 mph17.4 kmh 29.59 in1002.0 mb 0.00 in0.0 mm 0.00 in0.0 mm 0.13 in3.3 mm
02:10 PM 43.2°F6.2°C 42.4°F5.8°C 97% 5.6 mph S9.0 kmh S 5.9 mph9.5 kmh 29.59 in1002.0 mb 0.00 in0.0 mm 0.00 in0.0 mm 0.13 in3.3 mm
02:20 PM 43.2°F6.2°C 42.4°F5.8°C 97% 7.9 mph SSE12.7 kmh SSE 10.8 mph17.4 kmh 29.59 in1002.0 mb 0.00 in0.0 mm 0.00 in0.0 mm 0.13 in3.3 mm
02:30 PM 43.5°F6.4°C 42.7°F5.9°C 97% 7.1 mph SSE11.4 kmh SSE 7.6 mph12.2 kmh 29.59 in1002.0 mb 0.00 in0.0 mm 0.00 in0.0 mm 0.13 in3.3 mm
02:40 PM 43.7°F6.5°C 42.9°F6.1°C 97% 6.7 mph S10.8 kmh S 6.6 mph10.6 kmh 29.58 in1001.7 mb 0.00 in0.0 mm 0.00 in0.0 mm 0.13 in3.3 mm
02:50 PM 44.2°F6.8°C 43.4°F6.3°C 97% 6.9 mph S11.1 kmh S 7.6 mph12.2 kmh 29.58 in1001.7 mb 0.00 in0.0 mm 0.00 in0.0 mm 0.13 in3.3 mm
03:00 PM 44.4°F6.9°C 43.6°F6.4°C 97% 5.9 mph S9.5 kmh S 7.6 mph12.2 kmh 29.59 in1002.0 mb 0.00 in0.0 mm 0.00 in0.0 mm 0.13 in3.3 mm
03:10 PM 44.4°F6.9°C 43.6°F6.4°C 97% 6.9 mph SSW11.1 kmh SSW 7.6 mph12.2 kmh 29.59 in1002.0 mb 0.00 in0.0 mm 0.00 in0.0 mm 0.13 in3.3 mm
03:20 PM 44.4°F6.9°C 43.6°F6.4°C 97% 3.9 mph S6.3 kmh S 4.9 mph7.9 kmh 29.59 in1002.0 mb 0.00 in0.0 mm 0.00 in0.0 mm 0.13 in3.3 mm
03:30 PM 44.4°F6.9°C 43.6°F6.4°C 97% 4.3 mph SE6.9 kmh SE 4.9 mph7.9 kmh 29.59 in1002.0 mb 0.00 in0.0 mm 0.00 in0.0 mm 0.13 in3.3 mm
03:40 PM 44.6°F7.0°C 43.8°F6.6°C 97% 4.4 mph SSE7.1 kmh SSE 4.2 mph6.8 kmh 29.58 in1001.7 mb 0.00 in0.0 mm 0.00 in0.0 mm 0.13 in3.3 mm
03:50 PM 44.6°F7.0°C 43.8°F6.6°C 97% 3.8 mph SSE6.1 kmh SSE 4.9 mph7.9 kmh 29.59 in1002.0 mb 0.00 in0.0 mm 0.00 in0.0 mm 0.13 in3.3 mm
04:00 PM 44.6°F7.0°C 43.8°F6.6°C 97% 4.0 mph SSE6.4 kmh SSE 5.9 mph9.5 kmh 29.59 in1002.0 mb 0.01 in0.3 mm 0.01 in0.3 mm 0.14 in3.6 mm
04:10 PM 44.8°F7.1°C 44.0°F6.7°C 97% 5.0 mph S8.0 kmh S 5.9 mph9.5 kmh 29.59 in1002.0 mb 0.01 in0.3 mm 0.00 in0.0 mm 0.14 in3.6 mm
04:20 PM 45.1°F7.3°C 44.6°F7.0°C 98% 2.2 mph S3.5 kmh S 2.5 mph4.0 kmh 29.59 in1002.0 mb 0.01 in0.3 mm 0.00 in0.0 mm 0.14 in3.6 mm
04:30 PM 45.5°F7.5°C 45.0°F7.2°C 98% 1.6 mph S2.6 kmh S 2.5 mph4.0 kmh 29.59 in1002.0 mb 0.01 in0.3 mm 0.00 in0.0 mm 0.14 in3.6 mm
04:40 PM 45.9°F7.7°C 45.3°F7.4°C 98% 1.6 mph SE2.6 kmh SE 3.4 mph5.5 kmh 29.59 in1002.0 mb 0.01 in0.3 mm 0.00 in0.0 mm 0.14 in3.6 mm
04:50 PM 46.0°F7.8°C 45.5°F7.5°C 98% 1.5 mph SE2.4 kmh SE 2.5 mph4.0 kmh 29.59 in1002.0 mb 0.01 in0.3 mm 0.00 in0.0 mm 0.14 in3.6 mm
05:00 PM 46.0°F7.8°C 45.5°F7.5°C 98% 1.7 mph SW2.7 kmh SW 2.5 mph4.0 kmh 29.59 in1002.0 mb 0.00 in0.0 mm 0.00 in0.0 mm 0.14 in3.6 mm
05:10 PM 46.0°F7.8°C 45.5°F7.5°C 98% 1.9 mph SE3.1 kmh SE 2.5 mph4.0 kmh 29.59 in1002.0 mb 0.00 in0.0 mm 0.00 in0.0 mm 0.14 in3.6 mm
05:20 PM 46.0°F7.8°C 45.5°F7.5°C 98% 1.8 mph WSW2.9 kmh WSW 4.2 mph6.8 kmh 29.60 in1002.4 mb 0.00 in0.0 mm 0.00 in0.0 mm 0.14 in3.6 mm
05:30 PM 45.9°F7.7°C 45.3°F7.4°C 98% 5.1 mph SW8.2 kmh SW 9.1 mph14.6 kmh 29.59 in1002.0 mb 0.00 in0.0 mm 0.00 in0.0 mm 0.14 in3.6 mm
05:40 PM 45.7°F7.6°C 44.9°F7.2°C 97% 3.9 mph WSW6.3 kmh WSW 9.1 mph14.6 kmh 29.60 in1002.4 mb 0.00 in0.0 mm 0.00 in0.0 mm 0.14 in3.6 mm
05:50 PM 45.7°F7.6°C 44.9°F7.2°C 97% 4.7 mph WSW7.6 kmh WSW 5.9 mph9.5 kmh 29.61 in1002.7 mb 0.00 in0.0 mm 0.00 in0.0 mm 0.14 in3.6 mm
06:00 PM 45.9°F7.7°C 44.5°F6.9°C 95% 5.3 mph SW8.5 kmh SW 7.6 mph12.2 kmh 29.61 in1002.7 mb 0.00 in0.0 mm 0.00 in0.0 mm 0.14 in3.6 mm
06:10 PM 45.7°F7.6°C 43.8°F6.6°C 93% 6.3 mph SW10.1 kmh SW 6.6 mph10.6 kmh 29.61 in1002.7 mb 0.00 in0.0 mm 0.00 in0.0 mm 0.14 in3.6 mm
06:20 PM 45.7°F7.6°C 42.9°F6.1°C 90% 4.9 mph ESE7.9 kmh ESE 5.9 mph9.5 kmh 29.62 in1003.0 mb 0.00 in0.0 mm 0.00 in0.0 mm 0.14 in3.6 mm
06:30 PM 45.5°F7.5°C 42.2°F5.7°C 88% 5.0 mph SSW8.0 kmh SSW 6.6 mph10.6 kmh 29.62 in1003.0 mb 0.00 in0.0 mm 0.00 in0.0 mm 0.14 in3.6 mm
06:40 PM 45.3°F7.4°C 41.4°F5.2°C 86% 5.1 mph SW8.2 kmh SW 7.6 mph12.2 kmh 29.62 in1003.0 mb 0.00 in0.0 mm 0.00 in0.0 mm 0.14 in3.6 mm
06:50 PM 45.1°F7.3°C 41.2°F5.1°C 86% 3.4 mph SSW5.5 kmh SSW 5.9 mph9.5 kmh 29.62 in1003.0 mb 0.00 in0.0 mm 0.00 in0.0 mm 0.14 in3.6 mm
07:00 PM 45.0°F7.2°C 41.0°F5.0°C 86% 4.3 mph SW6.9 kmh SW 4.9 mph7.9 kmh 29.62 in1003.0 mb 0.00 in0.0 mm 0.00 in0.0 mm 0.14 in3.6 mm
07:10 PM 45.0°F7.2°C 40.7°F4.8°C 85% 4.6 mph SW7.4 kmh SW 5.9 mph9.5 kmh 29.62 in1003.0 mb 0.00 in0.0 mm 0.00 in0.0 mm 0.14 in3.6 mm
07:20 PM 44.4°F6.9°C 40.2°F4.6°C 85% 4.2 mph SW6.8 kmh SW 5.9 mph9.5 kmh 29.63 in1003.4 mb 0.00 in0.0 mm 0.00 in0.0 mm 0.14 in3.6 mm
07:30 PM 43.9°F6.6°C 39.7°F4.3°C 85% 2.5 mph SW4.0 kmh SW 3.4 mph5.5 kmh 29.63 in1003.4 mb 0.00 in0.0 mm 0.00 in0.0 mm 0.14 in3.6 mm
07:40 PM 43.5°F6.4°C 39.3°F4.1°C 85% 2.1 mph WSW3.4 kmh WSW 3.4 mph5.5 kmh 29.63 in1003.4 mb 0.00 in0.0 mm 0.00 in0.0 mm 0.14 in3.6 mm
07:50 PM 43.2°F6.2°C 39.0°F3.9°C 85% 1.9 mph SSW3.1 kmh SSW 2.5 mph4.0 kmh 29.63 in1003.4 mb 0.00 in0.0 mm 0.00 in0.0 mm 0.14 in3.6 mm
08:00 PM 42.8°F6.0°C 38.9°F3.8°C 86% 2.1 mph SW3.4 kmh SW 2.5 mph4.0 kmh 29.64 in1003.7 mb 0.00 in0.0 mm 0.00 in0.0 mm 0.14 in3.6 mm
08:10 PM 42.4°F5.8°C 40.6°F4.8°C 93% 3.2 mph WSW5.1 kmh WSW 4.9 mph7.9 kmh 29.64 in1003.7 mb 0.00 in0.0 mm 0.00 in0.0 mm 0.14 in3.6 mm
08:20 PM 42.6°F5.9°C 40.7°F4.8°C 93% 3.9 mph WNW6.3 kmh WNW 4.9 mph7.9 kmh 29.64 in1003.7 mb 0.00 in0.0 mm 0.00 in0.0 mm 0.14 in3.6 mm
08:30 PM 42.6°F5.9°C 40.7°F4.8°C 93% 2.8 mph WSW4.5 kmh WSW 5.9 mph9.5 kmh 29.64 in1003.7 mb 0.00 in0.0 mm 0.00 in0.0 mm 0.14 in3.6 mm
08:40 PM 42.6°F5.9°C 40.7°F4.8°C 93% 3.9 mph W6.3 kmh W 5.9 mph9.5 kmh 29.64 in1003.7 mb 0.00 in0.0 mm 0.00 in0.0 mm 0.14 in3.6 mm
08:50 PM 42.6°F5.9°C 40.7°F4.8°C 93% 2.7 mph SW4.3 kmh SW 4.2 mph6.8 kmh 29.64 in1003.7 mb 0.00 in0.0 mm 0.00 in0.0 mm 0.14 in3.6 mm
09:00 PM 42.6°F5.9°C 40.7°F4.8°C 93% 2.0 mph SW3.2 kmh SW 2.5 mph4.0 kmh 29.65 in1004.1 mb 0.00 in0.0 mm 0.00 in0.0 mm 0.14 in3.6 mm
09:10 PM 42.4°F5.8°C 40.6°F4.8°C 93% 2.0 mph W3.2 kmh W 3.4 mph5.5 kmh 29.65 in1004.1 mb 0.00 in0.0 mm 0.00 in0.0 mm 0.14 in3.6 mm
09:20 PM 42.4°F5.8°C 40.6°F4.8°C 93% 3.0 mph SSW4.8 kmh SSW 4.2 mph6.8 kmh 29.65 in1004.1 mb 0.00 in0.0 mm 0.00 in0.0 mm 0.14 in3.6 mm
09:30 PM 42.4°F5.8°C 40.6°F4.8°C 93% 3.5 mph SSW5.6 kmh SSW 5.9 mph9.5 kmh 29.65 in1004.1 mb 0.00 in0.0 mm 0.00 in0.0 mm 0.14 in3.6 mm
09:40 PM 42.4°F5.8°C 40.6°F4.8°C 93% 2.6 mph S4.2 kmh S 3.4 mph5.5 kmh 29.65 in1004.1 mb 0.00 in0.0 mm 0.00 in0.0 mm 0.14 in3.6 mm
09:50 PM 42.4°F5.8°C 40.3°F4.6°C 92% 2.6 mph S4.2 kmh S 3.4 mph5.5 kmh 29.65 in1004.1 mb 0.00 in0.0 mm 0.00 in0.0 mm 0.14 in3.6 mm
10:00 PM 42.3°F5.7°C 40.1°F4.5°C 92% 2.2 mph SW3.5 kmh SW 3.4 mph5.5 kmh 29.65 in1004.1 mb 0.00 in0.0 mm 0.00 in0.0 mm 0.14 in3.6 mm
10:10 PM 42.1°F5.6°C 40.2°F4.6°C 93% 1.2 mph SSW1.9 kmh SSW 2.5 mph4.0 kmh 29.65 in1004.1 mb 0.00 in0.0 mm 0.00 in0.0 mm 0.14 in3.6 mm
10:20 PM 41.9°F5.5°C 40.0°F4.4°C 93% 1.6 mph SSW2.6 kmh SSW 2.5 mph4.0 kmh 29.65 in1004.1 mb 0.00 in0.0 mm 0.00 in0.0 mm 0.14 in3.6 mm
10:30 PM 41.7°F5.4°C 39.8°F4.3°C 93% 1.9 mph WSW3.1 kmh WSW 3.4 mph5.5 kmh 29.64 in1003.7 mb 0.00 in0.0 mm 0.00 in0.0 mm 0.14 in3.6 mm
10:40 PM 41.7°F5.4°C 39.8°F4.3°C 93% 1.1 mph W1.8 kmh W 2.5 mph4.0 kmh 29.64 in1003.7 mb 0.00 in0.0 mm 0.00 in0.0 mm 0.14 in3.6 mm
10:50 PM 41.7°F5.4°C 39.8°F4.3°C 93% 2.7 mph S4.3 kmh S 4.2 mph6.8 kmh 29.64 in1003.7 mb 0.00 in0.0 mm 0.00 in0.0 mm 0.14 in3.6 mm
11:00 PM 41.7°F5.4°C 39.8°F4.3°C 93% 3.1 mph SSE5.0 kmh SSE 4.9 mph7.9 kmh 29.63 in1003.4 mb 0.00 in0.0 mm 0.00 in0.0 mm 0.13 in3.3 mm
11:10 PM 41.5°F5.3°C 39.4°F4.1°C 92% 2.5 mph WSW4.0 kmh WSW 3.4 mph5.5 kmh 29.64 in1003.7 mb 0.00 in0.0 mm 0.00 in0.0 mm 0.13 in3.3 mm
11:20 PM 41.2°F5.1°C 39.0°F3.9°C 92% 1.5 mph WSW2.4 kmh WSW 3.4 mph5.5 kmh 29.64 in1003.7 mb 0.00 in0.0 mm 0.00 in0.0 mm 0.13 in3.3 mm
11:30 PM 40.6°F4.8°C 38.5°F3.6°C 92% 0.6 mph NNE1.0 kmh NNE 1.7 mph2.7 kmh 29.64 in1003.7 mb 0.00 in0.0 mm 0.00 in0.0 mm 0.13 in3.3 mm
11:40 PM 39.9°F4.4°C 37.8°F3.2°C 92% 0.2 mph NNW0.3 kmh NNW 1.7 mph2.7 kmh 29.63 in1003.4 mb 0.00 in0.0 mm 0.00 in0.0 mm 0.13 in3.3 mm
11:50 PM 39.4°F4.1°C 37.2°F2.9°C 92% 0.4 mph NNW0.6 kmh NNW 1.7 mph2.7 kmh 29.64 in1003.7 mb 0.00 in0.0 mm 0.00 in0.0 mm 0.13 in3.3 mm